createdAt,value
2023-02-18T00:01:12.851Z,51.10
2023-02-18T00:03:41.594Z,50.40
2023-02-18T00:06:13.072Z,51.20
2023-02-18T00:08:40.090Z,51.40
2023-02-18T00:11:06.849Z,51.00
2023-02-18T00:13:33.785Z,51.50
2023-02-18T00:16:01.970Z,51.30
2023-02-18T00:18:28.625Z,52.00
2023-02-18T00:20:56.784Z,51.50
2023-02-18T00:23:23.556Z,52.00
2023-02-18T00:25:50.274Z,52.70
2023-02-18T00:28:16.965Z,52.30
2023-02-18T00:30:44.006Z,52.00
2023-02-18T00:33:10.638Z,52.30
2023-02-18T00:35:37.355Z,52.60
2023-02-18T00:38:05.403Z,52.30
2023-02-18T00:40:32.062Z,51.50
2023-02-18T00:42:58.749Z,52.20
2023-02-18T00:45:25.529Z,52.30
2023-02-18T00:47:52.178Z,52.30
2023-02-18T00:50:18.944Z,53.20
2023-02-18T00:52:45.603Z,52.30
2023-02-18T00:55:13.616Z,52.90
2023-02-18T01:00:30.987Z,52.10
2023-02-18T01:02:57.642Z,52.70
2023-02-18T01:05:24.457Z,52.90
2023-02-18T01:07:51.406Z,52.60
2023-02-18T01:10:19.523Z,52.50
2023-02-18T01:12:46.510Z,52.10
2023-02-18T01:15:15.872Z,52.90
2023-02-18T01:17:42.769Z,52.60
2023-02-18T01:20:11.111Z,52.50
2023-02-18T01:22:38.516Z,52.90
2023-02-18T01:25:06.036Z,53.30
2023-02-18T01:27:34.111Z,53.00
2023-02-18T01:30:00.869Z,53.30
2023-02-18T01:32:27.734Z,53.00
2023-02-18T01:34:54.445Z,53.20
2023-02-18T01:37:21.303Z,52.90
2023-02-18T01:39:47.980Z,53.50
2023-02-18T01:42:19.551Z,53.30
2023-02-18T01:44:48.659Z,53.70
2023-02-18T01:47:16.577Z,53.50
2023-02-18T01:49:44.971Z,53.20
2023-02-18T01:52:15.623Z,53.00
2023-02-18T01:54:44.639Z,53.50
2023-02-18T01:57:14.719Z,53.50
2023-02-18T01:59:44.240Z,53.80
2023-02-18T02:02:19.236Z,54.00
2023-02-18T02:04:46.668Z,53.60
2023-02-18T02:07:14.706Z,54.40
2023-02-18T02:09:42.798Z,54.10
2023-02-18T02:12:32.548Z,54.00
2023-02-18T02:15:13.881Z,53.90
2023-02-18T02:17:52.315Z,54.20
2023-02-18T02:20:52.599Z,54.10
2023-02-18T02:23:44.792Z,54.10
2023-02-18T02:26:43.959Z,54.20
2023-02-18T02:29:43.470Z,54.50
2023-02-18T02:32:37.285Z,54.60
2023-02-18T02:35:10.279Z,54.30
2023-02-18T02:37:41.962Z,54.40
2023-02-18T02:40:20.254Z,54.50
2023-02-18T02:42:58.104Z,54.50
2023-02-18T02:45:33.760Z,54.30
2023-02-18T02:48:08.915Z,54.60
2023-02-18T02:50:42.832Z,54.50
2023-02-18T02:53:15.870Z,54.30
2023-02-18T02:55:42.686Z,54.10
2023-02-18T02:58:14.269Z,54.10
2023-02-18T03:00:56.044Z,54.30
2023-02-18T03:03:47.709Z,54.00
2023-02-18T03:06:31.488Z,54.00
2023-02-18T03:09:09.367Z,54.10
2023-02-18T03:11:47.202Z,53.80
2023-02-18T03:14:23.609Z,53.50
2023-02-18T03:16:58.361Z,54.00
2023-02-18T03:19:32.756Z,54.30
2023-02-18T03:22:06.446Z,54.20
2023-02-18T03:24:37.513Z,54.60
2023-02-18T03:27:09.674Z,54.50
2023-02-18T03:29:37.154Z,54.60
2023-02-18T03:32:07.709Z,54.60
2023-02-18T03:34:38.210Z,54.70
2023-02-18T03:37:08.781Z,54.40
2023-02-18T03:39:36.442Z,54.30
2023-02-18T03:42:03.420Z,54.40
2023-02-18T03:44:31.364Z,54.70
2023-02-18T03:46:58.319Z,54.70
2023-02-18T03:49:24.963Z,54.40
2023-02-18T03:51:52.428Z,54.70
2023-02-18T03:54:20.490Z,54.70
2023-02-18T03:56:47.164Z,55.00
2023-02-18T03:59:13.884Z,55.00
2023-02-18T04:01:40.808Z,54.90
2023-02-18T04:04:07.634Z,55.00
2023-02-18T04:06:34.408Z,54.80
2023-02-18T04:09:01.094Z,54.90
2023-02-18T04:11:29.087Z,54.90
2023-02-18T04:13:55.721Z,55.00
2023-02-18T04:16:22.387Z,54.80
2023-02-18T04:18:49.092Z,55.00
2023-02-18T04:21:15.760Z,55.00
2023-02-18T04:23:42.421Z,54.80
2023-02-18T04:26:09.419Z,54.70
2023-02-18T04:28:37.616Z,55.10
2023-02-18T04:31:04.752Z,55.10
2023-02-18T04:33:31.505Z,55.10
2023-02-18T04:35:58.157Z,55.10
2023-02-18T04:38:24.799Z,55.00
2023-02-18T04:40:51.467Z,55.00
2023-02-18T04:43:18.131Z,55.00
2023-02-18T04:45:46.140Z,55.20
2023-02-18T04:48:12.821Z,55.10
2023-02-18T04:50:39.773Z,55.20
2023-02-18T04:53:06.465Z,55.30
2023-02-18T04:55:33.130Z,55.30
2023-02-18T04:57:59.775Z,55.40
2023-02-18T05:00:26.413Z,55.60
2023-02-18T05:02:54.420Z,55.70
2023-02-18T05:05:21.235Z,55.60
2023-02-18T05:07:47.914Z,55.90
2023-02-18T05:10:16.796Z,55.90
2023-02-18T05:12:43.590Z,55.80
2023-02-18T05:15:10.806Z,55.70
2023-02-18T05:17:37.497Z,55.80
2023-02-18T05:20:09.822Z,55.90
2023-02-18T05:22:36.824Z,55.80
2023-02-18T05:25:03.780Z,56.00
2023-02-18T05:27:30.543Z,55.90
2023-02-18T05:29:57.232Z,56.10
2023-02-18T05:32:24.307Z,56.10
2023-02-18T05:34:51.012Z,56.10
2023-02-18T05:37:19.019Z,56.10
2023-02-18T05:39:46.192Z,56.20
2023-02-18T05:42:13.002Z,56.30
2023-02-18T05:44:39.742Z,56.30
2023-02-18T05:47:11.043Z,56.60
2023-02-18T05:49:38.941Z,56.60
2023-02-18T05:52:05.906Z,56.70
2023-02-18T05:54:34.410Z,56.90
2023-02-18T05:57:01.305Z,57.00
2023-02-18T05:59:28.577Z,56.90
2023-02-18T06:01:55.744Z,57.10
2023-02-18T06:04:22.444Z,57.80
2023-02-18T06:06:49.230Z,57.20
2023-02-18T06:09:16.062Z,57.10
2023-02-18T06:11:44.143Z,57.30
2023-02-18T06:14:10.817Z,57.40
2023-02-18T06:16:37.547Z,57.40
2023-02-18T06:19:04.628Z,57.40
2023-02-18T06:21:31.288Z,57.40
2023-02-18T06:23:58.006Z,57.30
2023-02-18T06:26:24.919Z,57.50
2023-02-18T06:28:53.256Z,57.50
2023-02-18T06:31:20.026Z,57.80
2023-02-18T06:33:46.814Z,57.80
2023-02-18T06:36:13.927Z,57.80
2023-02-18T06:38:42.165Z,58.00
2023-02-18T06:41:09.258Z,57.90
2023-02-18T06:43:36.548Z,57.70
2023-02-18T06:46:05.701Z,57.70
2023-02-18T06:48:32.752Z,57.70
2023-02-18T06:50:59.711Z,57.70
2023-02-18T06:53:26.610Z,57.80
2023-02-18T06:55:53.380Z,57.70
2023-02-18T06:58:20.104Z,57.70
2023-02-18T07:00:46.834Z,57.70
2023-02-18T07:03:15.249Z,57.70
2023-02-18T07:05:42.343Z,57.60
2023-02-18T07:08:09.386Z,57.50
2023-02-18T07:10:36.409Z,57.60
2023-02-18T07:13:03.425Z,57.50
2023-02-18T07:15:30.228Z,57.50
2023-02-18T07:17:56.918Z,57.60
2023-02-18T07:20:25.705Z,57.50
2023-02-18T07:22:52.977Z,57.60
2023-02-18T07:25:22.172Z,58.30
2023-02-18T07:27:49.954Z,57.60
2023-02-18T07:30:17.112Z,57.50
2023-02-18T07:32:43.976Z,57.70
2023-02-18T07:35:13.150Z,57.70
2023-02-18T07:37:43.944Z,57.80
2023-02-18T07:40:13.941Z,57.70
2023-02-18T07:42:40.810Z,57.60
2023-02-18T07:45:08.557Z,57.70
2023-02-18T07:47:35.699Z,57.80
2023-02-18T07:50:02.679Z,57.70
2023-02-18T07:52:29.376Z,57.50
2023-02-18T07:54:57.549Z,57.50
2023-02-18T07:57:24.351Z,57.50
2023-02-18T07:59:51.156Z,57.70
2023-02-18T08:02:19.678Z,57.80
2023-02-18T08:04:47.180Z,57.90
2023-02-18T08:07:14.450Z,57.80
2023-02-18T08:09:41.344Z,57.80
2023-02-18T08:12:10.078Z,58.10
2023-02-18T08:14:36.796Z,58.40
2023-02-18T08:17:03.565Z,58.40
2023-02-18T08:19:30.299Z,58.30
2023-02-18T08:21:57.084Z,58.30
2023-02-18T08:24:26.706Z,58.50
2023-02-18T08:27:00.346Z,58.40
2023-02-18T08:29:29.586Z,58.20
2023-02-18T08:31:56.461Z,58.30
2023-02-18T08:34:23.311Z,58.40
2023-02-18T08:36:49.939Z,58.40
2023-02-18T08:39:17.740Z,58.40
2023-02-18T08:41:44.427Z,58.40
2023-02-18T08:44:11.195Z,58.50
2023-02-18T08:46:39.414Z,58.60
2023-02-18T08:49:06.630Z,58.80
2023-02-18T08:51:33.693Z,58.90
2023-02-18T08:54:00.577Z,58.70
2023-02-18T08:56:27.517Z,59.00
2023-02-18T08:58:54.258Z,59.10
2023-02-18T09:01:21.067Z,59.00
2023-02-18T09:03:49.219Z,58.80
2023-02-18T09:06:16.071Z,58.80
2023-02-18T09:08:42.820Z,58.80
2023-02-18T09:11:11.614Z,58.60
2023-02-18T09:13:38.699Z,58.70
2023-02-18T09:16:07.658Z,58.80
2023-02-18T09:18:35.625Z,58.90
2023-02-18T09:21:05.708Z,58.90
2023-02-18T09:23:33.526Z,59.10
2023-02-18T09:26:03.704Z,59.10
2023-02-18T09:28:30.463Z,59.00
2023-02-18T09:30:57.276Z,59.10
2023-02-18T09:33:24.063Z,59.40
2023-02-18T09:35:50.922Z,59.30
2023-02-18T09:38:20.391Z,59.90
2023-02-18T09:40:51.913Z,59.70
2023-02-18T09:43:27.835Z,59.50
2023-02-18T09:45:56.247Z,59.60
2023-02-18T09:48:28.695Z,60.50
2023-02-18T09:50:56.032Z,60.60
2023-02-18T09:53:24.789Z,60.70
2023-02-18T09:55:52.954Z,60.80
2023-02-18T09:58:22.550Z,60.70
2023-02-18T10:00:54.147Z,60.70
2023-02-18T10:03:23.321Z,60.80
2023-02-18T10:05:57.625Z,60.70
2023-02-18T10:08:28.206Z,60.90
2023-02-18T10:10:55.260Z,61.10
2023-02-18T10:13:24.329Z,61.30
2023-02-18T10:15:52.507Z,61.90
2023-02-18T10:18:27.137Z,61.80
2023-02-18T10:21:01.880Z,62.10
2023-02-18T10:23:31.735Z,62.20
2023-02-18T10:26:02.114Z,62.70
2023-02-18T10:28:29.846Z,62.40
2023-02-18T10:31:02.212Z,62.90
2023-02-18T10:33:34.557Z,63.10
2023-02-18T10:36:13.873Z,64.00
2023-02-18T10:38:50.769Z,65.20
2023-02-18T10:41:26.807Z,65.10
2023-02-18T10:44:01.549Z,66.70
2023-02-18T10:46:37.202Z,66.20
2023-02-18T10:49:16.505Z,65.70
2023-02-18T10:51:50.272Z,66.40
2023-02-18T10:54:23.626Z,67.80
2023-02-18T10:56:51.603Z,68.00
2023-02-18T10:59:22.128Z,68.50
2023-02-18T11:01:55.776Z,68.80
2023-02-18T11:04:26.503Z,69.00
2023-02-18T11:06:54.416Z,69.10
2023-02-18T11:09:31.795Z,68.70
2023-02-18T11:12:08.394Z,68.10
2023-02-18T11:14:41.187Z,68.20
2023-02-18T11:17:15.186Z,68.20
2023-02-18T11:19:41.919Z,67.70
2023-02-18T11:22:16.195Z,67.90
2023-02-18T11:24:44.784Z,68.10
2023-02-18T11:27:14.775Z,68.20
2023-02-18T11:29:41.767Z,68.20
2023-02-18T11:32:12.392Z,68.00
2023-02-18T11:34:43.294Z,68.00
2023-02-18T11:37:12.465Z,67.50
2023-02-18T11:39:45.579Z,67.20
2023-02-18T11:42:15.336Z,66.90
2023-02-18T11:44:48.954Z,66.90
2023-02-18T11:47:25.593Z,66.20
2023-02-18T11:50:18.103Z,65.90
2023-02-18T11:52:47.309Z,65.50
2023-02-18T11:55:21.489Z,66.10
2023-02-18T11:57:54.967Z,65.90
2023-02-18T12:00:25.472Z,65.70
2023-02-18T12:02:55.558Z,65.70
2023-02-18T12:05:25.247Z,65.10
2023-02-18T12:07:58.312Z,64.50
2023-02-18T12:10:31.495Z,64.40
2023-02-18T12:13:02.945Z,64.40
2023-02-18T12:15:40.110Z,64.20
2023-02-18T12:18:25.431Z,64.10
2023-02-18T12:21:04.131Z,64.20
2023-02-18T12:23:38.012Z,64.50
2023-02-18T12:26:18.282Z,64.70
2023-02-18T12:29:13.800Z,64.50
2023-02-18T12:31:52.833Z,64.60
2023-02-18T12:34:43.624Z,64.90
2023-02-18T12:37:31.190Z,64.80
2023-02-18T12:40:10.020Z,64.70
2023-02-18T12:42:51.719Z,64.60
2023-02-18T12:45:45.355Z,64.60
2023-02-18T12:48:29.607Z,64.50
2023-02-18T12:51:11.362Z,64.70
2023-02-18T12:53:59.766Z,64.50
2023-02-18T12:56:45.053Z,64.40
2023-02-18T12:59:31.226Z,63.30
2023-02-18T13:02:09.383Z,63.00
2023-02-18T13:04:47.050Z,62.80
2023-02-18T13:07:35.279Z,62.80
2023-02-18T13:10:28.873Z,63.10
2023-02-18T13:13:00.089Z,63.10
2023-02-18T13:15:36.799Z,62.60
2023-02-18T13:18:09.173Z,62.80
2023-02-18T13:20:41.476Z,63.10
2023-02-18T13:23:17.240Z,63.10
2023-02-18T13:25:44.448Z,63.50
2023-02-18T13:28:20.149Z,63.80
2023-02-18T13:30:52.870Z,63.20
2023-02-18T13:33:26.887Z,63.50
2023-02-18T13:36:00.187Z,63.60
2023-02-18T13:38:49.609Z,63.70
2023-02-18T13:41:16.956Z,63.90
2023-02-18T13:43:48.023Z,63.70
2023-02-18T13:46:17.855Z,63.60
2023-02-18T13:48:47.916Z,63.60
2023-02-18T13:51:17.137Z,63.30
2023-02-18T13:53:50.827Z,63.10
2023-02-18T13:56:26.852Z,63.20
2023-02-18T13:58:59.060Z,63.30
2023-02-18T14:01:40.674Z,63.30
2023-02-18T14:04:34.326Z,63.30
2023-02-18T14:07:26.359Z,63.50
2023-02-18T14:09:54.414Z,63.50
2023-02-18T14:12:36.684Z,63.50
2023-02-18T14:15:26.545Z,63.20
2023-02-18T14:18:10.063Z,63.60
2023-02-18T14:20:48.662Z,63.70
2023-02-18T14:23:44.875Z,63.90
2023-02-18T14:26:23.084Z,62.80
2023-02-18T14:28:54.758Z,62.90
2023-02-18T14:31:44.820Z,63.30
2023-02-18T14:34:39.997Z,63.20
2023-02-18T14:37:38.131Z,63.20
2023-02-18T14:40:27.634Z,63.20
2023-02-18T14:43:04.527Z,63.80
2023-02-18T14:45:43.981Z,64.10
2023-02-18T14:48:41.388Z,64.30
2023-02-18T14:51:10.539Z,64.40
2023-02-18T14:53:44.247Z,64.50
2023-02-18T14:56:14.702Z,64.30
2023-02-18T14:58:44.863Z,64.20
2023-02-18T15:01:19.837Z,64.20
2023-02-18T15:03:48.081Z,64.20
2023-02-18T15:06:29.221Z,64.10
2023-02-18T15:08:55.964Z,64.00
2023-02-18T15:11:30.596Z,64.10
2023-02-18T15:13:57.346Z,64.10
2023-02-18T15:16:31.179Z,64.10
2023-02-18T15:19:01.275Z,64.10
2023-02-18T15:21:32.201Z,64.20
2023-02-18T15:24:04.836Z,64.60
2023-02-18T15:26:31.683Z,64.30
2023-02-18T15:29:00.623Z,64.20
2023-02-18T15:31:29.252Z,64.20
2023-02-18T15:33:56.877Z,64.30
2023-02-18T15:36:26.319Z,64.20
2023-02-18T15:38:56.207Z,64.20
2023-02-18T15:41:25.271Z,64.10
2023-02-18T15:43:54.646Z,63.90
2023-02-18T15:46:22.647Z,63.70
2023-02-18T15:48:50.634Z,63.50
2023-02-18T15:51:20.311Z,63.50
2023-02-18T15:53:50.329Z,63.50
2023-02-18T15:56:23.876Z,63.30
2023-02-18T15:58:52.533Z,64.20
2023-02-18T16:01:27.917Z,63.50
2023-02-18T16:03:56.005Z,63.20
2023-02-18T16:06:24.705Z,63.40
2023-02-18T16:08:57.896Z,63.50
2023-02-18T16:11:29.981Z,63.60
2023-02-18T16:13:56.729Z,63.60
2023-02-18T16:16:25.905Z,63.70
2023-02-18T16:18:52.774Z,63.70
2023-02-18T16:21:37.352Z,63.80
2023-02-18T16:24:23.372Z,63.80
2023-02-18T16:26:54.702Z,63.80
2023-02-18T16:29:25.207Z,63.70
2023-02-18T16:31:52.212Z,63.80
2023-02-18T16:34:19.408Z,63.80
2023-02-18T16:36:46.239Z,63.60
2023-02-18T16:39:13.216Z,63.50
2023-02-18T16:41:39.848Z,63.30
2023-02-18T16:44:13.504Z,63.00
2023-02-18T16:46:40.162Z,62.60
2023-02-18T16:49:06.951Z,62.70
2023-02-18T16:51:35.245Z,62.90
2023-02-18T16:54:02.230Z,62.60
2023-02-18T16:56:32.211Z,62.70
2023-02-18T16:58:59.307Z,62.70
2023-02-18T17:01:30.089Z,62.70
2023-02-18T17:03:58.126Z,63.30
2023-02-18T17:06:25.188Z,62.70
2023-02-18T17:08:52.504Z,62.80
2023-02-18T17:11:22.725Z,62.70
2023-02-18T17:13:50.385Z,62.70
2023-02-18T17:16:17.916Z,62.50
2023-02-18T17:18:46.619Z,62.40
2023-02-18T17:21:14.668Z,62.30
2023-02-18T17:23:41.711Z,62.50
2023-02-18T17:26:16.008Z,62.50
2023-02-18T17:28:42.693Z,62.40
2023-02-18T17:31:14.201Z,61.90
2023-02-18T17:33:41.173Z,62.00
2023-02-18T17:36:10.617Z,62.00
2023-02-18T17:38:37.818Z,62.00
2023-02-18T17:41:04.866Z,61.90
2023-02-18T17:43:31.796Z,61.90
2023-02-18T17:45:58.889Z,62.10
2023-02-18T17:48:26.524Z,62.10
2023-02-18T17:50:53.550Z,62.00
2023-02-18T17:53:21.752Z,62.20
2023-02-18T17:55:49.062Z,62.00
2023-02-18T17:58:16.232Z,62.10
2023-02-18T18:00:45.044Z,62.20
2023-02-18T18:03:13.519Z,62.20
2023-02-18T18:05:42.158Z,62.30
2023-02-18T18:08:09.352Z,62.50
2023-02-18T18:10:40.246Z,62.60
2023-02-18T18:13:09.263Z,62.90
2023-02-18T18:15:39.086Z,62.90
2023-02-18T18:18:06.488Z,63.00
2023-02-18T18:20:35.195Z,62.90
2023-02-18T18:23:03.800Z,63.00
2023-02-18T18:25:35.879Z,62.80
2023-02-18T18:28:04.518Z,62.70
2023-02-18T18:30:33.089Z,62.60
2023-02-18T18:32:59.906Z,62.60
2023-02-18T18:35:28.723Z,62.60
2023-02-18T18:37:56.294Z,62.50
2023-02-18T18:40:25.343Z,62.40
2023-02-18T18:42:52.305Z,62.10
2023-02-18T18:45:24.257Z,61.60
2023-02-18T18:47:52.490Z,61.10
2023-02-18T18:50:20.459Z,61.20
2023-02-18T18:52:48.261Z,61.50
2023-02-18T18:55:27.284Z,61.70
2023-02-18T18:57:54.444Z,61.80
2023-02-18T19:00:25.836Z,61.80
2023-02-18T19:02:52.673Z,62.10
2023-02-18T19:05:26.704Z,62.10
2023-02-18T19:07:53.557Z,62.30
2023-02-18T19:10:21.248Z,62.30
2023-02-18T19:12:49.040Z,62.30
2023-02-18T19:15:19.515Z,62.30
2023-02-18T19:17:49.374Z,62.50
2023-02-18T19:20:19.238Z,62.40
2023-02-18T19:22:46.042Z,62.40
2023-02-18T19:25:13.091Z,62.20
2023-02-18T19:27:41.521Z,62.10
2023-02-18T19:30:11.669Z,62.20
2023-02-18T19:32:38.487Z,61.70
2023-02-18T19:35:08.065Z,62.30
2023-02-18T19:37:35.864Z,62.00
2023-02-18T19:40:02.832Z,62.00
2023-02-18T19:42:29.789Z,61.80
2023-02-18T19:44:56.505Z,61.50
2023-02-18T19:47:24.238Z,61.30
2023-02-18T19:49:51.336Z,61.20
2023-02-18T19:52:20.918Z,61.30
2023-02-18T19:54:47.914Z,61.10
2023-02-18T19:57:15.056Z,61.10
2023-02-18T19:59:41.922Z,61.00
2023-02-18T20:02:13.698Z,61.00
2023-02-18T20:04:40.466Z,61.00
2023-02-18T20:07:07.280Z,61.20
2023-02-18T20:09:35.431Z,61.80
2023-02-18T20:12:02.274Z,62.20
2023-02-18T20:14:28.994Z,62.30
2023-02-18T20:16:55.951Z,62.50
2023-02-18T20:19:22.688Z,62.80
2023-02-18T20:21:49.730Z,63.30
2023-02-18T20:24:16.701Z,63.70
2023-02-18T20:26:44.836Z,64.00
2023-02-18T20:29:11.593Z,63.90
2023-02-18T20:31:38.465Z,64.00
2023-02-18T20:34:05.392Z,63.90
2023-02-18T20:36:32.394Z,63.80
2023-02-18T20:39:10.804Z,63.80
2023-02-18T20:41:42.117Z,63.90
2023-02-18T20:44:10.656Z,64.00
2023-02-18T20:46:38.494Z,64.20
2023-02-18T20:49:05.807Z,64.30
2023-02-18T20:51:32.635Z,64.40
2023-02-18T20:53:59.437Z,64.30
2023-02-18T20:56:26.633Z,64.20
2023-02-18T20:58:53.467Z,64.10
2023-02-18T21:01:21.869Z,64.30
2023-02-18T21:03:49.135Z,65.10
2023-02-18T21:06:18.191Z,64.50
2023-02-18T21:08:46.578Z,64.60
2023-02-18T21:11:15.155Z,64.90
2023-02-18T21:13:42.300Z,65.00
2023-02-18T21:16:10.019Z,65.10
2023-02-18T21:18:38.134Z,65.20
2023-02-18T21:21:06.790Z,65.00
2023-02-18T21:23:33.913Z,64.90
2023-02-18T21:26:07.678Z,64.60
2023-02-18T21:28:34.428Z,64.20
2023-02-18T21:31:01.934Z,64.00
2023-02-18T21:33:28.678Z,63.80
2023-02-18T21:35:56.860Z,63.70
2023-02-18T21:38:23.550Z,63.80
2023-02-18T21:40:50.307Z,63.60
2023-02-18T21:43:17.531Z,63.80
2023-02-18T21:45:44.250Z,63.60
2023-02-18T21:48:11.011Z,63.60
2023-02-18T21:50:37.754Z,63.80
2023-02-18T21:53:05.904Z,63.90
2023-02-18T21:55:32.663Z,64.30
2023-02-18T21:57:59.405Z,64.60
2023-02-18T22:00:26.189Z,64.60
2023-02-18T22:02:52.896Z,64.90
2023-02-18T22:05:19.638Z,65.20
2023-02-18T22:07:46.386Z,65.50
2023-02-18T22:10:14.660Z,65.30
2023-02-18T22:12:41.367Z,65.60
2023-02-18T22:15:08.777Z,65.50
2023-02-18T22:17:35.480Z,65.50
2023-02-18T22:20:02.245Z,65.20
2023-02-18T22:22:29.058Z,65.30
2023-02-18T22:24:55.814Z,65.10
2023-02-18T22:27:23.950Z,64.80
2023-02-18T22:29:50.690Z,64.70
2023-02-18T22:32:17.506Z,64.50
2023-02-18T22:34:44.285Z,64.20
2023-02-18T22:37:11.038Z,64.20
2023-02-18T22:39:38.159Z,64.10
2023-02-18T22:42:05.293Z,64.00
2023-02-18T22:44:33.429Z,63.90
2023-02-18T22:47:00.201Z,63.80
2023-02-18T22:49:26.945Z,63.80
2023-02-18T22:51:54.602Z,63.70
2023-02-18T22:54:21.859Z,63.60
2023-02-18T22:56:48.876Z,63.30
2023-02-18T22:59:17.288Z,63.50
2023-02-18T23:01:47.467Z,63.40
2023-02-18T23:04:16.653Z,63.30
2023-02-18T23:06:45.572Z,63.30
2023-02-18T23:09:15.331Z,63.30
2023-02-18T23:11:42.500Z,63.10
2023-02-18T23:14:09.675Z,63.10
2023-02-18T23:16:36.907Z,63.00
2023-02-18T23:19:05.025Z,62.90
2023-02-18T23:21:31.909Z,62.90
2023-02-18T23:23:58.658Z,62.80
2023-02-18T23:26:26.070Z,62.70
2023-02-18T23:28:53.313Z,62.70
2023-02-18T23:31:22.857Z,62.60
2023-02-18T23:33:52.973Z,62.50
2023-02-18T23:36:23.097Z,62.40
2023-02-18T23:38:50.775Z,62.40
2023-02-18T23:41:17.926Z,62.30
2023-02-18T23:43:45.041Z,62.30
2023-02-18T23:46:12.339Z,62.40
2023-02-18T23:48:39.468Z,62.50
2023-02-18T23:51:08.477Z,62.40
2023-02-18T23:53:37.751Z,62.50
2023-02-18T23:56:07.685Z,62.60
2023-02-18T23:58:34.811Z,62.60
